sensor_id;sensor_type;location;lat;lon;timestamp;P1;durP1;ratioP1;P2;durP2;ratioP2
30247;SDS011;17063;50.892;4.702;2022-07-25T00:02:05;6.50;;;4.03;;
30247;SDS011;17063;50.892;4.702;2022-07-25T00:04:34;6.23;;;3.97;;
30247;SDS011;17063;50.892;4.702;2022-07-25T00:07:01;5.80;;;4.10;;
30247;SDS011;17063;50.892;4.702;2022-07-25T00:09:28;10.90;;;4.27;;
30247;SDS011;17063;50.892;4.702;2022-07-25T00:11:55;6.53;;;4.20;;
30247;SDS011;17063;50.892;4.702;2022-07-25T00:14:22;5.17;;;3.87;;
30247;SDS011;17063;50.892;4.702;2022-07-25T00:16:49;5.17;;;3.60;;
30247;SDS011;17063;50.892;4.702;2022-07-25T00:19:16;6.93;;;3.83;;
30247;SDS011;17063;50.892;4.702;2022-07-25T00:21:44;4.70;;;3.83;;
30247;SDS011;17063;50.892;4.702;2022-07-25T00:24:11;8.57;;;3.87;;
30247;SDS011;17063;50.892;4.702;2022-07-25T00:26:37;7.80;;;4.13;;
30247;SDS011;17063;50.892;4.702;2022-07-25T00:29:06;7.13;;;4.20;;
30247;SDS011;17063;50.892;4.702;2022-07-25T00:31:33;6.67;;;3.50;;
30247;SDS011;17063;50.892;4.702;2022-07-25T00:34:00;6.00;;;3.90;;
30247;SDS011;17063;50.892;4.702;2022-07-25T00:36:26;4.23;;;3.83;;
30247;SDS011;17063;50.892;4.702;2022-07-25T00:38:53;9.00;;;4.10;;
30247;SDS011;17063;50.892;4.702;2022-07-25T00:41:20;5.87;;;4.17;;
30247;SDS011;17063;50.892;4.702;2022-07-25T00:43:47;6.60;;;3.50;;
30247;SDS011;17063;50.892;4.702;2022-07-25T00:46:14;5.60;;;3.67;;
30247;SDS011;17063;50.892;4.702;2022-07-25T00:48:44;4.20;;;3.80;;
30247;SDS011;17063;50.892;4.702;2022-07-25T00:51:12;5.13;;;3.87;;
30247;SDS011;17063;50.892;4.702;2022-07-25T00:53:40;4.93;;;3.90;;
30247;SDS011;17063;50.892;4.702;2022-07-25T00:56:08;5.23;;;4.40;;
30247;SDS011;17063;50.892;4.702;2022-07-25T00:58:35;8.50;;;4.47;;
30247;SDS011;17063;50.892;4.702;2022-07-25T01:01:02;6.03;;;3.57;;
30247;SDS011;17063;50.892;4.702;2022-07-25T01:03:29;4.30;;;3.53;;
30247;SDS011;17063;50.892;4.702;2022-07-25T01:05:56;5.20;;;4.23;;
30247;SDS011;17063;50.892;4.702;2022-07-25T01:08:23;4.80;;;3.63;;
30247;SDS011;17063;50.892;4.702;2022-07-25T01:10:50;5.13;;;4.17;;
30247;SDS011;17063;50.892;4.702;2022-07-25T01:13:17;9.23;;;3.80;;
30247;SDS011;17063;50.892;4.702;2022-07-25T01:15:46;4.33;;;3.93;;
30247;SDS011;17063;50.892;4.702;2022-07-25T01:18:13;5.23;;;4.03;;
30247;SDS011;17063;50.892;4.702;2022-07-25T01:20:40;4.87;;;3.87;;
30247;SDS011;17063;50.892;4.702;2022-07-25T01:23:07;8.77;;;4.17;;
30247;SDS011;17063;50.892;4.702;2022-07-25T01:25:33;5.03;;;4.33;;
30247;SDS011;17063;50.892;4.702;2022-07-25T01:28:00;6.93;;;3.90;;
30247;SDS011;17063;50.892;4.702;2022-07-25T01:30:27;6.70;;;4.27;;
30247;SDS011;17063;50.892;4.702;2022-07-25T01:32:54;9.50;;;4.30;;
30247;SDS011;17063;50.892;4.702;2022-07-25T01:35:21;8.23;;;4.03;;
30247;SDS011;17063;50.892;4.702;2022-07-25T01:37:48;5.27;;;3.80;;
30247;SDS011;17063;50.892;4.702;2022-07-25T01:40:15;9.07;;;3.80;;
30247;SDS011;17063;50.892;4.702;2022-07-25T01:42:42;4.40;;;3.70;;
30247;SDS011;17063;50.892;4.702;2022-07-25T01:45:10;6.77;;;4.03;;
30247;SDS011;17063;50.892;4.702;2022-07-25T01:47:37;9.17;;;4.27;;
30247;SDS011;17063;50.892;4.702;2022-07-25T01:50:04;6.37;;;4.23;;
30247;SDS011;17063;50.892;4.702;2022-07-25T01:52:31;6.30;;;3.80;;
30247;SDS011;17063;50.892;4.702;2022-07-25T01:54:58;7.23;;;3.80;;
30247;SDS011;17063;50.892;4.702;2022-07-25T01:57:25;4.67;;;3.90;;
30247;SDS011;17063;50.892;4.702;2022-07-25T01:59:56;7.13;;;3.87;;
30247;SDS011;17063;50.892;4.702;2022-07-25T02:02:24;7.70;;;3.80;;
30247;SDS011;17063;50.892;4.702;2022-07-25T02:04:50;7.83;;;3.97;;
30247;SDS011;17063;50.892;4.702;2022-07-25T02:07:17;7.97;;;3.90;;
30247;SDS011;17063;50.892;4.702;2022-07-25T02:09:44;6.40;;;4.20;;
30247;SDS011;17063;50.892;4.702;2022-07-25T02:12:12;6.10;;;3.80;;
30247;SDS011;17063;50.892;4.702;2022-07-25T02:14:39;6.00;;;4.30;;
30247;SDS011;17063;50.892;4.702;2022-07-25T02:17:06;5.77;;;4.20;;
30247;SDS011;17063;50.892;4.702;2022-07-25T02:19:33;5.20;;;3.73;;
30247;SDS011;17063;50.892;4.702;2022-07-25T02:22:01;6.40;;;4.57;;
30247;SDS011;17063;50.892;4.702;2022-07-25T02:24:28;6.43;;;4.20;;
30247;SDS011;17063;50.892;4.702;2022-07-25T02:26:55;4.90;;;3.97;;
30247;SDS011;17063;50.892;4.702;2022-07-25T02:29:22;7.07;;;4.30;;
30247;SDS011;17063;50.892;4.702;2022-07-25T02:31:49;7.40;;;4.07;;
30247;SDS011;17063;50.892;4.702;2022-07-25T02:34:17;4.63;;;4.20;;
30247;SDS011;17063;50.892;4.702;2022-07-25T02:36:44;6.03;;;4.50;;
30247;SDS011;17063;50.892;4.702;2022-07-25T02:39:11;7.53;;;4.30;;
30247;SDS011;17063;50.892;4.702;2022-07-25T02:41:38;6.30;;;4.27;;
30247;SDS011;17063;50.892;4.702;2022-07-25T02:44:05;8.10;;;4.10;;
30247;SDS011;17063;50.892;4.702;2022-07-25T02:46:32;6.73;;;4.90;;
30247;SDS011;17063;50.892;4.702;2022-07-25T02:48:59;4.30;;;3.90;;
30247;SDS011;17063;50.892;4.702;2022-07-25T02:51:26;5.60;;;4.20;;
30247;SDS011;17063;50.892;4.702;2022-07-25T02:53:53;6.77;;;4.30;;
30247;SDS011;17063;50.892;4.702;2022-07-25T02:56:24;5.57;;;3.90;;
30247;SDS011;17063;50.892;4.702;2022-07-25T02:58:55;7.00;;;3.73;;
30247;SDS011;17063;50.892;4.702;2022-07-25T03:01:23;5.57;;;3.83;;
30247;SDS011;17063;50.892;4.702;2022-07-25T03:03:50;4.90;;;3.70;;
30247;SDS011;17063;50.892;4.702;2022-07-25T03:06:18;7.03;;;3.87;;
30247;SDS011;17063;50.892;4.702;2022-07-25T03:08:44;5.23;;;3.53;;
30247;SDS011;17063;50.892;4.702;2022-07-25T03:11:11;5.83;;;3.67;;
30247;SDS011;17063;50.892;4.702;2022-07-25T03:13:39;5.23;;;3.87;;
30247;SDS011;17063;50.892;4.702;2022-07-25T03:16:06;7.93;;;3.80;;
30247;SDS011;17063;50.892;4.702;2022-07-25T03:18:33;3.83;;;3.40;;
30247;SDS011;17063;50.892;4.702;2022-07-25T03:21:00;6.60;;;4.07;;
30247;SDS011;17063;50.892;4.702;2022-07-25T03:23:26;7.37;;;3.60;;
30247;SDS011;17063;50.892;4.702;2022-07-25T03:25:55;6.07;;;4.20;;
30247;SDS011;17063;50.892;4.702;2022-07-25T03:28:22;8.23;;;4.00;;
30247;SDS011;17063;50.892;4.702;2022-07-25T03:30:50;5.90;;;4.27;;
30247;SDS011;17063;50.892;4.702;2022-07-25T03:33:18;5.97;;;3.83;;
30247;SDS011;17063;50.892;4.702;2022-07-25T03:35:45;6.07;;;3.60;;
30247;SDS011;17063;50.892;4.702;2022-07-25T03:38:12;11.87;;;3.90;;
30247;SDS011;17063;50.892;4.702;2022-07-25T03:40:38;7.03;;;3.70;;
30247;SDS011;17063;50.892;4.702;2022-07-25T03:43:05;6.50;;;3.63;;
30247;SDS011;17063;50.892;4.702;2022-07-25T03:45:32;7.33;;;3.80;;
30247;SDS011;17063;50.892;4.702;2022-07-25T03:47:59;9.07;;;4.00;;
30247;SDS011;17063;50.892;4.702;2022-07-25T03:50:26;6.00;;;3.97;;
30247;SDS011;17063;50.892;4.702;2022-07-25T03:52:53;5.97;;;3.90;;
30247;SDS011;17063;50.892;4.702;2022-07-25T03:55:20;4.90;;;3.90;;
30247;SDS011;17063;50.892;4.702;2022-07-25T03:57:47;6.87;;;3.80;;
30247;SDS011;17063;50.892;4.702;2022-07-25T04:00:14;5.53;;;4.37;;
30247;SDS011;17063;50.892;4.702;2022-07-25T04:02:41;6.20;;;3.77;;
30247;SDS011;17063;50.892;4.702;2022-07-25T04:05:08;4.87;;;3.90;;
30247;SDS011;17063;50.892;4.702;2022-07-25T04:07:36;4.57;;;4.00;;
30247;SDS011;17063;50.892;4.702;2022-07-25T04:10:03;4.70;;;4.23;;
30247;SDS011;17063;50.892;4.702;2022-07-25T04:12:31;6.10;;;4.30;;
30247;SDS011;17063;50.892;4.702;2022-07-25T04:14:58;6.07;;;4.20;;
30247;SDS011;17063;50.892;4.702;2022-07-25T04:17:24;9.67;;;4.30;;
30247;SDS011;17063;50.892;4.702;2022-07-25T04:19:51;4.50;;;3.87;;
30247;SDS011;17063;50.892;4.702;2022-07-25T04:22:19;4.77;;;4.30;;
30247;SDS011;17063;50.892;4.702;2022-07-25T04:24:46;5.63;;;4.20;;
30247;SDS011;17063;50.892;4.702;2022-07-25T04:27:13;6.63;;;4.10;;
30247;SDS011;17063;50.892;4.702;2022-07-25T04:29:40;7.03;;;4.13;;
30247;SDS011;17063;50.892;4.702;2022-07-25T04:32:07;6.03;;;4.33;;
30247;SDS011;17063;50.892;4.702;2022-07-25T04:34:34;7.83;;;3.80;;
30247;SDS011;17063;50.892;4.702;2022-07-25T04:37:01;7.83;;;3.90;;
30247;SDS011;17063;50.892;4.702;2022-07-25T04:39:28;5.63;;;4.03;;
30247;SDS011;17063;50.892;4.702;2022-07-25T04:41:55;4.43;;;4.03;;
30247;SDS011;17063;50.892;4.702;2022-07-25T04:44:22;7.13;;;4.70;;
30247;SDS011;17063;50.892;4.702;2022-07-25T04:46:48;5.47;;;4.13;;
30247;SDS011;17063;50.892;4.702;2022-07-25T04:49:15;4.87;;;4.17;;
30247;SDS011;17063;50.892;4.702;2022-07-25T04:51:42;6.07;;;4.20;;
30247;SDS011;17063;50.892;4.702;2022-07-25T04:54:09;5.07;;;3.97;;
30247;SDS011;17063;50.892;4.702;2022-07-25T04:56:36;5.80;;;3.97;;
30247;SDS011;17063;50.892;4.702;2022-07-25T04:59:02;4.90;;;4.20;;
30247;SDS011;17063;50.892;4.702;2022-07-25T05:01:33;8.03;;;3.93;;
30247;SDS011;17063;50.892;4.702;2022-07-25T05:04:00;5.83;;;4.13;;
30247;SDS011;17063;50.892;4.702;2022-07-25T05:06:27;6.70;;;3.87;;
30247;SDS011;17063;50.892;4.702;2022-07-25T05:08:54;6.87;;;4.33;;
30247;SDS011;17063;50.892;4.702;2022-07-25T05:11:21;4.90;;;4.00;;
30247;SDS011;17063;50.892;4.702;2022-07-25T05:13:48;8.73;;;4.07;;
30247;SDS011;17063;50.892;4.702;2022-07-25T05:16:15;5.20;;;3.77;;
30247;SDS011;17063;50.892;4.702;2022-07-25T05:18:42;3.33;;;2.90;;
30247;SDS011;17063;50.892;4.702;2022-07-25T05:21:09;6.30;;;2.70;;
30247;SDS011;17063;50.892;4.702;2022-07-25T05:23:37;4.00;;;2.30;;
30247;SDS011;17063;50.892;4.702;2022-07-25T05:26:04;5.43;;;2.30;;
30247;SDS011;17063;50.892;4.702;2022-07-25T05:29:02;3.07;;;2.00;;
30247;SDS011;17063;50.892;4.702;2022-07-25T05:31:29;3.03;;;2.03;;
30247;SDS011;17063;50.892;4.702;2022-07-25T05:33:57;3.83;;;1.90;;
30247;SDS011;17063;50.892;4.702;2022-07-25T05:36:24;4.73;;;2.30;;
30247;SDS011;17063;50.892;4.702;2022-07-25T05:38:51;4.50;;;1.97;;
30247;SDS011;17063;50.892;4.702;2022-07-25T05:41:18;3.20;;;2.17;;
30247;SDS011;17063;50.892;4.702;2022-07-25T05:43:46;3.47;;;2.10;;
30247;SDS011;17063;50.892;4.702;2022-07-25T05:46:14;3.50;;;1.80;;
30247;SDS011;17063;50.892;4.702;2022-07-25T05:48:41;2.27;;;2.07;;
30247;SDS011;17063;50.892;4.702;2022-07-25T05:51:08;5.00;;;2.10;;
30247;SDS011;17063;50.892;4.702;2022-07-25T05:53:35;4.00;;;1.93;;
30247;SDS011;17063;50.892;4.702;2022-07-25T05:56:02;3.03;;;1.90;;
30247;SDS011;17063;50.892;4.702;2022-07-25T05:58:30;3.07;;;2.00;;
30247;SDS011;17063;50.892;4.702;2022-07-25T06:00:57;6.53;;;2.17;;
30247;SDS011;17063;50.892;4.702;2022-07-25T06:03:24;4.90;;;2.00;;
30247;SDS011;17063;50.892;4.702;2022-07-25T06:05:51;7.40;;;2.57;;
30247;SDS011;17063;50.892;4.702;2022-07-25T06:08:17;5.53;;;1.87;;
30247;SDS011;17063;50.892;4.702;2022-07-25T06:10:47;6.73;;;2.50;;
30247;SDS011;17063;50.892;4.702;2022-07-25T06:13:14;7.17;;;2.40;;
30247;SDS011;17063;50.892;4.702;2022-07-25T06:15:41;5.47;;;2.13;;
30247;SDS011;17063;50.892;4.702;2022-07-25T06:18:08;3.03;;;1.80;;
30247;SDS011;17063;50.892;4.702;2022-07-25T06:20:35;3.77;;;2.10;;
30247;SDS011;17063;50.892;4.702;2022-07-25T06:23:02;5.90;;;2.40;;
30247;SDS011;17063;50.892;4.702;2022-07-25T06:25:30;6.40;;;2.00;;
30247;SDS011;17063;50.892;4.702;2022-07-25T06:27:57;8.27;;;2.00;;
30247;SDS011;17063;50.892;4.702;2022-07-25T06:30:23;5.10;;;2.27;;
30247;SDS011;17063;50.892;4.702;2022-07-25T06:32:50;4.77;;;2.10;;
30247;SDS011;17063;50.892;4.702;2022-07-25T06:35:17;5.50;;;2.00;;
30247;SDS011;17063;50.892;4.702;2022-07-25T06:37:44;7.33;;;2.27;;
30247;SDS011;17063;50.892;4.702;2022-07-25T06:40:12;5.40;;;1.77;;
30247;SDS011;17063;50.892;4.702;2022-07-25T06:42:40;4.67;;;1.87;;
30247;SDS011;17063;50.892;4.702;2022-07-25T06:45:09;8.93;;;1.60;;
30247;SDS011;17063;50.892;4.702;2022-07-25T06:47:37;5.83;;;2.13;;
30247;SDS011;17063;50.892;4.702;2022-07-25T06:50:04;12.37;;;2.60;;
30247;SDS011;17063;50.892;4.702;2022-07-25T06:52:37;13.07;;;2.27;;
30247;SDS011;17063;50.892;4.702;2022-07-25T06:55:04;4.80;;;2.20;;
30247;SDS011;17063;50.892;4.702;2022-07-25T06:57:32;10.87;;;2.20;;
30247;SDS011;17063;50.892;4.702;2022-07-25T06:59:58;6.20;;;1.87;;
30247;SDS011;17063;50.892;4.702;2022-07-25T07:02:25;4.83;;;2.23;;
30247;SDS011;17063;50.892;4.702;2022-07-25T07:04:53;10.07;;;2.40;;
30247;SDS011;17063;50.892;4.702;2022-07-25T07:07:19;6.73;;;2.27;;
30247;SDS011;17063;50.892;4.702;2022-07-25T07:09:46;6.73;;;2.13;;
30247;SDS011;17063;50.892;4.702;2022-07-25T07:12:14;5.83;;;2.10;;
30247;SDS011;17063;50.892;4.702;2022-07-25T07:14:41;6.37;;;2.23;;
30247;SDS011;17063;50.892;4.702;2022-07-25T07:17:09;7.70;;;2.30;;
30247;SDS011;17063;50.892;4.702;2022-07-25T07:19:36;5.10;;;1.67;;
30247;SDS011;17063;50.892;4.702;2022-07-25T07:22:10;8.33;;;2.00;;
30247;SDS011;17063;50.892;4.702;2022-07-25T07:24:38;8.40;;;2.07;;
30247;SDS011;17063;50.892;4.702;2022-07-25T07:27:10;4.43;;;1.60;;
30247;SDS011;17063;50.892;4.702;2022-07-25T07:29:37;4.20;;;1.70;;
30247;SDS011;17063;50.892;4.702;2022-07-25T07:32:05;3.93;;;1.33;;
30247;SDS011;17063;50.892;4.702;2022-07-25T07:34:40;5.60;;;1.53;;
30247;SDS011;17063;50.892;4.702;2022-07-25T07:37:07;5.50;;;2.07;;
30247;SDS011;17063;50.892;4.702;2022-07-25T07:39:34;4.10;;;1.80;;
30247;SDS011;17063;50.892;4.702;2022-07-25T07:42:01;6.77;;;1.53;;
30247;SDS011;17063;50.892;4.702;2022-07-25T07:44:28;3.30;;;1.27;;
30247;SDS011;17063;50.892;4.702;2022-07-25T07:46:55;3.57;;;1.33;;
30247;SDS011;17063;50.892;4.702;2022-07-25T07:49:24;4.70;;;1.50;;
30247;SDS011;17063;50.892;4.702;2022-07-25T07:51:54;7.93;;;1.90;;
30247;SDS011;17063;50.892;4.702;2022-07-25T07:54:21;3.50;;;1.37;;
30247;SDS011;17063;50.892;4.702;2022-07-25T07:57:08;5.60;;;1.50;;
30247;SDS011;17063;50.892;4.702;2022-07-25T07:59:41;2.37;;;1.30;;
30247;SDS011;17063;50.892;4.702;2022-07-25T08:02:08;3.07;;;1.30;;
30247;SDS011;17063;50.892;4.702;2022-07-25T08:04:35;2.77;;;1.37;;
30247;SDS011;17063;50.892;4.702;2022-07-25T08:07:01;6.07;;;1.20;;
30247;SDS011;17063;50.892;4.702;2022-07-25T08:09:28;5.33;;;1.20;;
30247;SDS011;17063;50.892;4.702;2022-07-25T08:11:55;5.47;;;1.23;;
30247;SDS011;17063;50.892;4.702;2022-07-25T08:14:22;5.13;;;1.40;;
30247;SDS011;17063;50.892;4.702;2022-07-25T08:16:49;5.07;;;1.73;;
30247;SDS011;17063;50.892;4.702;2022-07-25T08:19:21;3.13;;;1.20;;
30247;SDS011;17063;50.892;4.702;2022-07-25T08:21:52;5.90;;;1.40;;
30247;SDS011;17063;50.892;4.702;2022-07-25T08:24:34;5.43;;;2.03;;
30247;SDS011;17063;50.892;4.702;2022-07-25T08:27:01;1.40;;;1.30;;
30247;SDS011;17063;50.892;4.702;2022-07-25T08:29:28;4.97;;;1.37;;
30247;SDS011;17063;50.892;4.702;2022-07-25T08:31:55;5.37;;;1.53;;
30247;SDS011;17063;50.892;4.702;2022-07-25T08:34:21;4.37;;;1.60;;
30247;SDS011;17063;50.892;4.702;2022-07-25T08:36:49;4.10;;;1.20;;
30247;SDS011;17063;50.892;4.702;2022-07-25T08:39:16;7.13;;;1.50;;
30247;SDS011;17063;50.892;4.702;2022-07-25T08:41:42;2.00;;;1.17;;
30247;SDS011;17063;50.892;4.702;2022-07-25T08:44:15;4.53;;;1.50;;
30247;SDS011;17063;50.892;4.702;2022-07-25T08:46:45;5.10;;;1.40;;
30247;SDS011;17063;50.892;4.702;2022-07-25T08:49:12;2.90;;;1.50;;
30247;SDS011;17063;50.892;4.702;2022-07-25T08:51:39;2.47;;;1.37;;
30247;SDS011;17063;50.892;4.702;2022-07-25T08:54:06;2.93;;;1.33;;
30247;SDS011;17063;50.892;4.702;2022-07-25T08:56:33;3.00;;;1.40;;
30247;SDS011;17063;50.892;4.702;2022-07-25T08:59:00;4.03;;;1.40;;
30247;SDS011;17063;50.892;4.702;2022-07-25T09:01:28;3.23;;;1.57;;
30247;SDS011;17063;50.892;4.702;2022-07-25T09:04:00;6.97;;;1.43;;
30247;SDS011;17063;50.892;4.702;2022-07-25T09:06:29;2.63;;;1.60;;
30247;SDS011;17063;50.892;4.702;2022-07-25T09:08:58;6.80;;;1.20;;
30247;SDS011;17063;50.892;4.702;2022-07-25T09:11:30;3.73;;;1.30;;
30247;SDS011;17063;50.892;4.702;2022-07-25T09:14:03;3.93;;;1.53;;
30247;SDS011;17063;50.892;4.702;2022-07-25T09:16:35;2.47;;;1.57;;
30247;SDS011;17063;50.892;4.702;2022-07-25T09:19:09;2.57;;;1.57;;
30247;SDS011;17063;50.892;4.702;2022-07-25T09:21:42;1.80;;;1.40;;
30247;SDS011;17063;50.892;4.702;2022-07-25T09:24:12;3.80;;;1.43;;
30247;SDS011;17063;50.892;4.702;2022-07-25T09:29:15;4.60;;;1.50;;
30247;SDS011;17063;50.892;4.702;2022-07-25T09:31:44;2.87;;;1.40;;
30247;SDS011;17063;50.892;4.702;2022-07-25T09:34:12;3.90;;;1.43;;
30247;SDS011;17063;50.892;4.702;2022-07-25T09:36:54;3.77;;;1.67;;
30247;SDS011;17063;50.892;4.702;2022-07-25T09:41:59;2.60;;;1.57;;
30247;SDS011;17063;50.892;4.702;2022-07-25T09:44:26;1.63;;;1.23;;
30247;SDS011;17063;50.892;4.702;2022-07-25T09:46:56;1.77;;;1.30;;
30247;SDS011;17063;50.892;4.702;2022-07-25T09:49:41;2.37;;;1.37;;
30247;SDS011;17063;50.892;4.702;2022-07-25T09:52:27;3.63;;;1.40;;
30247;SDS011;17063;50.892;4.702;2022-07-25T09:55:00;3.43;;;1.53;;
30247;SDS011;17063;50.892;4.702;2022-07-25T09:57:28;2.87;;;1.40;;
30247;SDS011;17063;50.892;4.702;2022-07-25T09:59:57;3.60;;;1.40;;
30247;SDS011;17063;50.892;4.702;2022-07-25T10:08:22;3.87;;;1.47;;
30247;SDS011;17063;50.892;4.702;2022-07-25T10:10:49;1.73;;;1.30;;
30247;SDS011;17063;50.892;4.702;2022-07-25T10:13:27;11.83;;;1.50;;
30247;SDS011;17063;50.892;4.702;2022-07-25T10:16:15;3.33;;;1.30;;
30247;SDS011;17063;50.892;4.702;2022-07-25T10:18:48;4.67;;;1.47;;
30247;SDS011;17063;50.892;4.702;2022-07-25T10:21:23;4.07;;;1.37;;
30247;SDS011;17063;50.892;4.702;2022-07-25T10:24:06;3.00;;;1.50;;
30247;SDS011;17063;50.892;4.702;2022-07-25T10:26:35;2.53;;;1.40;;
30247;SDS011;17063;50.892;4.702;2022-07-25T10:29:09;4.10;;;1.53;;
30247;SDS011;17063;50.892;4.702;2022-07-25T10:31:39;2.43;;;1.50;;
30247;SDS011;17063;50.892;4.702;2022-07-25T10:34:26;2.60;;;1.60;;
30247;SDS011;17063;50.892;4.702;2022-07-25T10:37:12;2.77;;;1.70;;
30247;SDS011;17063;50.892;4.702;2022-07-25T10:40:09;3.43;;;1.47;;
30247;SDS011;17063;50.892;4.702;2022-07-25T10:42:50;2.20;;;1.53;;
30247;SDS011;17063;50.892;4.702;2022-07-25T10:45:51;3.70;;;1.50;;
30247;SDS011;17063;50.892;4.702;2022-07-25T10:48:26;3.90;;;1.60;;
30247;SDS011;17063;50.892;4.702;2022-07-25T10:51:02;4.37;;;1.87;;
30247;SDS011;17063;50.892;4.702;2022-07-25T10:58:42;2.73;;;1.67;;
30247;SDS011;17063;50.892;4.702;2022-07-25T11:01:14;6.67;;;1.90;;
30247;SDS011;17063;50.892;4.702;2022-07-25T11:03:46;7.13;;;1.70;;
30247;SDS011;17063;50.892;4.702;2022-07-25T11:06:16;5.93;;;2.07;;
30247;SDS011;17063;50.892;4.702;2022-07-25T11:08:57;2.63;;;1.70;;
30247;SDS011;17063;50.892;4.702;2022-07-25T11:11:36;6.80;;;2.20;;
30247;SDS011;17063;50.892;4.702;2022-07-25T11:14:12;3.00;;;1.80;;
30247;SDS011;17063;50.892;4.702;2022-07-25T11:16:41;4.37;;;1.93;;
30247;SDS011;17063;50.892;4.702;2022-07-25T11:19:26;4.57;;;2.03;;
30247;SDS011;17063;50.892;4.702;2022-07-25T11:21:54;4.20;;;2.17;;
30247;SDS011;17063;50.892;4.702;2022-07-25T11:27:05;4.40;;;2.00;;
30247;SDS011;17063;50.892;4.702;2022-07-25T11:29:39;6.63;;;2.17;;
30247;SDS011;17063;50.892;4.702;2022-07-25T11:32:16;4.80;;;2.20;;
30247;SDS011;17063;50.892;4.702;2022-07-25T11:34:51;8.27;;;2.20;;
30247;SDS011;17063;50.892;4.702;2022-07-25T11:37:19;7.27;;;2.17;;
30247;SDS011;17063;50.892;4.702;2022-07-25T11:39:47;4.07;;;1.97;;
30247;SDS011;17063;50.892;4.702;2022-07-25T11:42:15;6.97;;;2.20;;
30247;SDS011;17063;50.892;4.702;2022-07-25T11:44:47;7.63;;;2.00;;
30247;SDS011;17063;50.892;4.702;2022-07-25T11:49:57;4.93;;;2.27;;
30247;SDS011;17063;50.892;4.702;2022-07-25T11:52:35;8.90;;;2.43;;
30247;SDS011;17063;50.892;4.702;2022-07-25T11:55:26;5.47;;;1.87;;
30247;SDS011;17063;50.892;4.702;2022-07-25T11:58:00;6.97;;;2.13;;
30247;SDS011;17063;50.892;4.702;2022-07-25T12:00:28;9.57;;;1.90;;
30247;SDS011;17063;50.892;4.702;2022-07-25T12:03:04;4.43;;;1.60;;
30247;SDS011;17063;50.892;4.702;2022-07-25T12:05:33;5.47;;;1.53;;
30247;SDS011;17063;50.892;4.702;2022-07-25T12:08:19;2.07;;;1.60;;
30247;SDS011;17063;50.892;4.702;2022-07-25T12:10:47;10.17;;;2.40;;
30247;SDS011;17063;50.892;4.702;2022-07-25T12:13:23;6.17;;;1.70;;
30247;SDS011;17063;50.892;4.702;2022-07-25T12:15:51;5.03;;;1.50;;
30247;SDS011;17063;50.892;4.702;2022-07-25T12:18:19;5.27;;;2.00;;
30247;SDS011;17063;50.892;4.702;2022-07-25T12:20:45;6.77;;;1.87;;
30247;SDS011;17063;50.892;4.702;2022-07-25T12:23:15;4.30;;;1.60;;
30247;SDS011;17063;50.892;4.702;2022-07-25T12:25:43;2.63;;;1.70;;
30247;SDS011;17063;50.892;4.702;2022-07-25T12:28:11;5.20;;;1.80;;
30247;SDS011;17063;50.892;4.702;2022-07-25T12:30:40;3.53;;;1.63;;
30247;SDS011;17063;50.892;4.702;2022-07-25T12:33:08;5.43;;;1.87;;
30247;SDS011;17063;50.892;4.702;2022-07-25T12:35:35;6.43;;;1.77;;
30247;SDS011;17063;50.892;4.702;2022-07-25T12:38:05;2.73;;;1.70;;
30247;SDS011;17063;50.892;4.702;2022-07-25T12:40:32;5.20;;;2.07;;
30247;SDS011;17063;50.892;4.702;2022-07-25T12:42:59;6.43;;;2.03;;
30247;SDS011;17063;50.892;4.702;2022-07-25T12:45:26;6.93;;;2.00;;
30247;SDS011;17063;50.892;4.702;2022-07-25T12:47:53;4.73;;;1.90;;
30247;SDS011;17063;50.892;4.702;2022-07-25T12:50:20;7.37;;;2.10;;
30247;SDS011;17063;50.892;4.702;2022-07-25T12:52:47;5.27;;;2.00;;
30247;SDS011;17063;50.892;4.702;2022-07-25T12:55:15;8.83;;;2.13;;
30247;SDS011;17063;50.892;4.702;2022-07-25T12:57:43;6.63;;;2.03;;
30247;SDS011;17063;50.892;4.702;2022-07-25T13:00:12;4.00;;;1.50;;
30247;SDS011;17063;50.892;4.702;2022-07-25T13:02:41;4.87;;;1.80;;
30247;SDS011;17063;50.892;4.702;2022-07-25T13:05:18;6.27;;;2.03;;
30247;SDS011;17063;50.892;4.702;2022-07-25T13:07:49;5.60;;;2.10;;
30247;SDS011;17063;50.892;4.702;2022-07-25T13:10:16;8.47;;;1.63;;
30247;SDS011;17063;50.892;4.702;2022-07-25T13:12:44;2.93;;;1.80;;
30247;SDS011;17063;50.892;4.702;2022-07-25T13:15:12;10.77;;;2.00;;
30247;SDS011;17063;50.892;4.702;2022-07-25T13:17:39;6.53;;;2.07;;
30247;SDS011;17063;50.892;4.702;2022-07-25T13:20:06;6.07;;;1.77;;
30247;SDS011;17063;50.892;4.702;2022-07-25T13:22:33;7.63;;;1.83;;
30247;SDS011;17063;50.892;4.702;2022-07-25T13:25:03;5.57;;;2.13;;
30247;SDS011;17063;50.892;4.702;2022-07-25T13:27:34;6.30;;;2.20;;
30247;SDS011;17063;50.892;4.702;2022-07-25T13:30:06;5.27;;;2.00;;
30247;SDS011;17063;50.892;4.702;2022-07-25T13:32:34;8.43;;;2.30;;
30247;SDS011;17063;50.892;4.702;2022-07-25T13:35:00;6.70;;;2.10;;
30247;SDS011;17063;50.892;4.702;2022-07-25T13:37:27;7.27;;;2.23;;
30247;SDS011;17063;50.892;4.702;2022-07-25T13:39:54;4.93;;;1.83;;
30247;SDS011;17063;50.892;4.702;2022-07-25T13:42:21;5.47;;;1.90;;
30247;SDS011;17063;50.892;4.702;2022-07-25T13:44:48;7.77;;;1.70;;
30247;SDS011;17063;50.892;4.702;2022-07-25T13:47:15;4.70;;;1.67;;
30247;SDS011;17063;50.892;4.702;2022-07-25T13:49:42;3.50;;;1.73;;
30247;SDS011;17063;50.892;4.702;2022-07-25T13:52:10;4.93;;;1.87;;
30247;SDS011;17063;50.892;4.702;2022-07-25T13:54:36;5.93;;;1.80;;
30247;SDS011;17063;50.892;4.702;2022-07-25T13:57:03;8.20;;;1.80;;
30247;SDS011;17063;50.892;4.702;2022-07-25T13:59:30;3.97;;;1.80;;
30247;SDS011;17063;50.892;4.702;2022-07-25T14:01:57;11.57;;;2.00;;
30247;SDS011;17063;50.892;4.702;2022-07-25T14:04:24;3.60;;;1.60;;
30247;SDS011;17063;50.892;4.702;2022-07-25T14:06:50;8.37;;;1.87;;
30247;SDS011;17063;50.892;4.702;2022-07-25T14:09:20;10.23;;;1.73;;
30247;SDS011;17063;50.892;4.702;2022-07-25T14:11:47;5.03;;;1.80;;
30247;SDS011;17063;50.892;4.702;2022-07-25T14:14:14;8.13;;;1.67;;
30247;SDS011;17063;50.892;4.702;2022-07-25T14:16:41;8.63;;;1.80;;
30247;SDS011;17063;50.892;4.702;2022-07-25T14:19:08;3.87;;;1.50;;
30247;SDS011;17063;50.892;4.702;2022-07-25T14:21:36;4.90;;;2.17;;
30247;SDS011;17063;50.892;4.702;2022-07-25T14:24:03;2.60;;;1.30;;
30247;SDS011;17063;50.892;4.702;2022-07-25T14:26:31;8.40;;;1.90;;
30247;SDS011;17063;50.892;4.702;2022-07-25T14:29:01;3.43;;;1.27;;
30247;SDS011;17063;50.892;4.702;2022-07-25T14:31:29;7.13;;;1.43;;
30247;SDS011;17063;50.892;4.702;2022-07-25T14:33:57;7.40;;;1.77;;
30247;SDS011;17063;50.892;4.702;2022-07-25T14:36:24;4.03;;;1.37;;
30247;SDS011;17063;50.892;4.702;2022-07-25T14:38:51;4.43;;;1.60;;
30247;SDS011;17063;50.892;4.702;2022-07-25T14:41:18;11.13;;;1.40;;
30247;SDS011;17063;50.892;4.702;2022-07-25T14:43:48;4.57;;;1.40;;
30247;SDS011;17063;50.892;4.702;2022-07-25T14:46:15;5.70;;;1.33;;
30247;SDS011;17063;50.892;4.702;2022-07-25T14:48:42;7.87;;;1.20;;
30247;SDS011;17063;50.892;4.702;2022-07-25T14:51:09;5.27;;;1.40;;
30247;SDS011;17063;50.892;4.702;2022-07-25T14:53:36;5.17;;;1.40;;
30247;SDS011;17063;50.892;4.702;2022-07-25T14:56:03;4.80;;;1.33;;
30247;SDS011;17063;50.892;4.702;2022-07-25T14:58:31;3.83;;;1.27;;
30247;SDS011;17063;50.892;4.702;2022-07-25T15:00:58;4.20;;;1.47;;
30247;SDS011;17063;50.892;4.702;2022-07-25T15:03:26;7.40;;;1.63;;
30247;SDS011;17063;50.892;4.702;2022-07-25T15:05:52;5.37;;;1.13;;
30247;SDS011;17063;50.892;4.702;2022-07-25T15:08:19;4.10;;;1.40;;
30247;SDS011;17063;50.892;4.702;2022-07-25T15:10:46;3.17;;;1.10;;
30247;SDS011;17063;50.892;4.702;2022-07-25T15:13:13;5.40;;;1.23;;
30247;SDS011;17063;50.892;4.702;2022-07-25T15:15:57;3.17;;;1.40;;
30247;SDS011;17063;50.892;4.702;2022-07-25T15:18:25;6.80;;;1.40;;
30247;SDS011;17063;50.892;4.702;2022-07-25T15:20:51;2.73;;;1.30;;